createdAt,value
2018-04-15T00:00:18.204Z,21.30
2018-04-15T00:02:22.586Z,20.03
2018-04-15T00:04:26.115Z,21.97
2018-04-15T00:06:29.762Z,24.97
2018-04-15T00:08:33.422Z,19.17
2018-04-15T00:10:37.860Z,22.93
2018-04-15T00:12:41.492Z,20.60
2018-04-15T00:14:45.806Z,21.57
2018-04-15T00:16:50.262Z,16.53
2018-04-15T00:18:54.662Z,19.63
2018-04-15T00:20:58.366Z,19.97
2018-04-15T00:23:01.927Z,18.80
2018-04-15T00:25:05.768Z,23.87
2018-04-15T00:27:10.260Z,24.10
2018-04-15T00:29:13.806Z,23.13
2018-04-15T00:31:17.360Z,20.53
2018-04-15T00:33:20.923Z,15.97
2018-04-15T00:35:24.547Z,13.17
2018-04-15T00:37:28.085Z,11.83
2018-04-15T00:39:32.003Z,11.90
2018-04-15T00:41:36.313Z,10.67
2018-04-15T00:43:39.825Z,14.97
2018-04-15T00:45:43.445Z,16.40
2018-04-15T00:47:46.993Z,13.77
2018-04-15T00:49:51.364Z,11.93
2018-04-15T00:51:54.920Z,10.70
2018-04-15T00:54:10.323Z,11.20
2018-04-15T00:56:13.915Z,12.50
2018-04-15T00:58:17.563Z,14.43
2018-04-15T01:00:21.104Z,13.77
2018-04-15T01:02:24.646Z,13.27
2018-04-15T01:04:28.260Z,14.80
2018-04-15T01:06:32.574Z,13.80
2018-04-15T01:08:36.998Z,13.93
2018-04-15T01:10:40.548Z,11.37
2018-04-15T01:12:44.102Z,10.73
2018-04-15T01:14:48.877Z,8.50
2018-04-15T01:16:52.450Z,8.10
2018-04-15T01:18:56.001Z,10.57
2018-04-15T01:20:59.617Z,11.40
2018-04-15T01:23:03.159Z,13.93
2018-04-15T01:25:06.730Z,13.97
2018-04-15T01:27:11.055Z,13.53
2018-04-15T01:29:14.617Z,15.23
2018-04-15T01:31:18.223Z,17.70
2018-04-15T01:33:21.815Z,18.57
2018-04-15T01:35:25.379Z,14.10
2018-04-15T01:37:29.736Z,13.73
2018-04-15T01:39:33.432Z,13.87
2018-04-15T01:41:37.025Z,12.93
2018-04-15T01:43:40.627Z,14.73
2018-04-15T01:45:44.737Z,15.27
2018-04-15T01:47:48.330Z,14.97
2018-04-15T01:49:51.887Z,15.10
2018-04-15T01:51:56.263Z,13.00
2018-04-15T01:54:00.645Z,10.63
2018-04-15T01:56:04.247Z,13.50
2018-04-15T01:58:07.887Z,14.70
2018-04-15T02:00:12.318Z,16.70
2018-04-15T02:02:15.892Z,15.13
2018-04-15T02:04:19.472Z,13.40
2018-04-15T02:06:23.204Z,10.53
2018-04-15T02:08:27.554Z,10.03
2018-04-15T02:10:31.173Z,11.73
2018-04-15T02:12:34.758Z,14.97
2018-04-15T02:14:38.306Z,15.53
2018-04-15T02:16:42.636Z,15.47
2018-04-15T02:18:46.987Z,14.23
2018-04-15T02:20:50.589Z,15.70
2018-04-15T02:22:54.121Z,14.17
2018-04-15T02:24:58.538Z,13.20
2018-04-15T02:27:02.131Z,13.80
2018-04-15T02:29:05.659Z,14.80
2018-04-15T02:31:09.303Z,18.23
2018-04-15T02:33:12.878Z,17.80
2018-04-15T02:35:16.887Z,18.27
2018-04-15T02:37:20.432Z,19.43
2018-04-15T02:39:24.820Z,16.03
2018-04-15T02:41:28.442Z,16.23
2018-04-15T02:43:32.027Z,26.80
2018-04-15T02:45:35.717Z,25.20
2018-04-15T02:47:39.622Z,32.20
2018-04-15T02:49:43.179Z,28.83
2018-04-15T02:51:46.755Z,31.40
2018-04-15T02:53:50.437Z,29.43
2018-04-15T02:55:53.967Z,34.50
2018-04-15T02:57:57.570Z,32.73
2018-04-15T03:00:01.195Z,35.70
2018-04-15T03:02:05.553Z,38.50
2018-04-15T03:04:09.220Z,42.47
2018-04-15T03:06:12.777Z,37.93
2018-04-15T03:08:16.439Z,25.67
2018-04-15T03:10:20.781Z,25.30
2018-04-15T03:12:24.381Z,22.77
2018-04-15T03:14:27.968Z,27.50
2018-04-15T03:16:31.541Z,31.70
2018-04-15T03:18:35.093Z,33.20
2018-04-15T03:20:39.484Z,30.50
2018-04-15T03:22:43.128Z,25.53
2018-04-15T03:24:46.872Z,30.87
2018-04-15T03:26:50.503Z,33.63
2018-04-15T03:28:54.063Z,27.77
2018-04-15T03:30:58.527Z,26.10
2018-04-15T03:33:02.113Z,28.60
2018-04-15T03:35:06.486Z,31.53
2018-04-15T03:37:10.875Z,31.17
2018-04-15T03:39:14.519Z,32.07
2018-04-15T03:41:18.183Z,31.40
2018-04-15T03:43:22.526Z,31.57
2018-04-15T03:45:26.125Z,29.37
2018-04-15T03:47:29.833Z,30.70
2018-04-15T03:49:33.402Z,28.83
2018-04-15T03:51:37.712Z,28.13
2018-04-15T03:53:42.115Z,28.77
2018-04-15T03:55:46.444Z,25.97
2018-04-15T03:57:50.063Z,27.13
2018-04-15T03:59:53.667Z,29.10
2018-04-15T04:01:57.291Z,31.37
2018-04-15T04:04:00.944Z,31.57
2018-04-15T04:06:04.510Z,34.07
2018-04-15T04:08:08.952Z,33.23
2018-04-15T04:10:12.561Z,33.20
2018-04-15T04:12:16.144Z,33.37
2018-04-15T04:14:19.719Z,35.27
2018-04-15T04:16:23.340Z,32.17
2018-04-15T04:18:38.681Z,32.47
2018-04-15T04:20:54.220Z,34.53
2018-04-15T04:23:09.532Z,33.17
2018-04-15T04:25:37.698Z,36.93
2018-04-15T04:27:41.339Z,33.33
2018-04-15T04:29:45.826Z,32.03
2018-04-15T04:31:49.412Z,35.17
2018-04-15T04:33:53.075Z,34.80
2018-04-15T04:35:56.644Z,34.47
2018-04-15T04:38:00.232Z,35.60
2018-04-15T04:40:05.607Z,34.57
2018-04-15T04:42:09.923Z,37.07
2018-04-15T04:44:13.465Z,35.13
2018-04-15T04:46:17.900Z,38.23
2018-04-15T04:48:21.611Z,41.33
2018-04-15T04:50:25.691Z,37.83
2018-04-15T04:52:29.684Z,39.10
2018-04-15T04:54:33.294Z,37.83
2018-04-15T04:56:37.637Z,38.30
2018-04-15T04:58:41.680Z,39.43
2018-04-15T05:00:45.302Z,34.83
2018-04-15T05:02:49.802Z,30.60
2018-04-15T05:04:53.377Z,34.30
2018-04-15T05:06:56.928Z,39.30
2018-04-15T05:09:01.384Z,40.07
2018-04-15T05:11:05.014Z,38.27
2018-04-15T05:13:08.620Z,36.67
2018-04-15T05:15:12.436Z,36.30
2018-04-15T05:17:16.778Z,39.37
2018-04-15T05:19:20.331Z,36.93
2018-04-15T05:21:24.239Z,37.47
2018-04-15T05:23:27.808Z,35.97
2018-04-15T05:25:31.463Z,38.63
2018-04-15T05:27:35.192Z,33.47
2018-04-15T05:29:38.756Z,42.20
2018-04-15T05:31:42.324Z,39.00
2018-04-15T05:33:45.969Z,43.37
2018-04-15T05:35:49.584Z,42.43
2018-04-15T05:37:54.011Z,41.90
2018-04-15T05:39:57.603Z,41.43
2018-04-15T05:42:01.121Z,43.47
2018-04-15T05:44:04.726Z,41.40
2018-04-15T05:46:09.089Z,39.03
2018-04-15T05:48:12.801Z,40.60
2018-04-15T05:50:16.376Z,41.13
2018-04-15T05:52:19.921Z,41.20
2018-04-15T05:54:23.507Z,40.97
2018-04-15T05:56:27.035Z,41.67
2018-04-15T05:58:31.356Z,39.03
2018-04-15T06:00:34.953Z,38.80
2018-04-15T06:02:39.324Z,37.90
2018-04-15T06:04:42.968Z,37.83
2018-04-15T06:06:47.275Z,41.23
2018-04-15T06:08:51.678Z,41.73
2018-04-15T06:10:56.405Z,39.90
2018-04-15T06:13:00.006Z,38.77
2018-04-15T06:15:03.567Z,39.00
2018-04-15T06:17:07.332Z,39.07
2018-04-15T06:19:10.913Z,39.07
2018-04-15T06:21:14.485Z,38.83
2018-04-15T06:23:18.827Z,35.97
2018-04-15T06:25:22.424Z,34.03
2018-04-15T06:27:26.276Z,37.00
2018-04-15T06:29:29.939Z,35.23
2018-04-15T06:31:33.495Z,33.53
2018-04-15T06:33:37.875Z,37.43
2018-04-15T06:35:42.258Z,39.67
2018-04-15T06:37:45.870Z,37.77
2018-04-15T06:39:49.458Z,33.80
2018-04-15T06:41:53.011Z,36.53
2018-04-15T06:43:56.599Z,37.80
2018-04-15T06:46:00.947Z,37.90
2018-04-15T06:48:04.559Z,37.70
2018-04-15T06:50:08.157Z,26.50
2018-04-15T06:52:11.808Z,30.17
2018-04-15T06:54:15.369Z,33.77
2018-04-15T06:56:18.957Z,38.20
2018-04-15T06:58:22.575Z,34.17
2018-04-15T07:00:26.295Z,34.47
2018-04-15T07:02:29.886Z,35.37
2018-04-15T07:04:33.470Z,29.67
2018-04-15T07:06:37.152Z,29.37
2018-04-15T07:08:40.734Z,36.27
2018-04-15T07:10:44.325Z,36.03
2018-04-15T07:12:47.963Z,36.03
2018-04-15T07:14:51.506Z,36.03
2018-04-15T07:16:55.023Z,34.90
2018-04-15T07:18:58.629Z,35.67
2018-04-15T07:21:03.124Z,37.00
2018-04-15T07:23:06.957Z,34.87
2018-04-15T07:25:10.555Z,32.30
2018-04-15T07:27:14.085Z,33.27
2018-04-15T07:29:17.651Z,32.93
2018-04-15T07:31:21.219Z,34.37
2018-04-15T07:33:25.851Z,33.70
2018-04-15T07:35:29.584Z,34.10
2018-04-15T07:37:33.107Z,34.47
2018-04-15T07:39:36.730Z,33.57
2018-04-15T07:41:40.592Z,28.53
2018-04-15T07:43:44.184Z,32.60
2018-04-15T07:45:48.620Z,33.80
2018-04-15T07:47:52.219Z,32.40
2018-04-15T07:49:56.056Z,26.47
2018-04-15T07:51:59.612Z,31.53
2018-04-15T07:54:03.950Z,34.67
2018-04-15T07:56:07.578Z,32.80
2018-04-15T07:58:11.212Z,34.40
2018-04-15T08:00:15.611Z,28.67
2018-04-15T08:02:19.298Z,32.77
2018-04-15T08:04:22.996Z,22.67
2018-04-15T08:06:26.543Z,27.57
2018-04-15T08:08:30.236Z,19.50
2018-04-15T08:10:33.972Z,27.67
2018-04-15T08:12:37.809Z,23.10
2018-04-15T08:14:41.373Z,19.67
2018-04-15T08:16:45.016Z,21.37
2018-04-15T08:18:49.366Z,19.07
2018-04-15T08:20:52.994Z,18.37
2018-04-15T08:22:56.640Z,24.20
2018-04-15T08:25:00.220Z,17.47
2018-04-15T08:27:04.709Z,26.10
2018-04-15T08:29:08.316Z,24.83
2018-04-15T08:31:11.939Z,18.43
2018-04-15T08:33:15.606Z,24.70
2018-04-15T08:35:19.222Z,29.33
2018-04-15T08:37:23.636Z,21.53
2018-04-15T08:39:27.277Z,22.87
2018-04-15T08:41:30.833Z,29.07
2018-04-15T08:43:34.413Z,22.87
2018-04-15T08:45:38.022Z,19.70
2018-04-15T08:47:41.554Z,17.03
2018-04-15T08:49:45.504Z,25.73
2018-04-15T08:51:49.170Z,18.30
2018-04-15T08:53:52.724Z,24.30
2018-04-15T08:55:57.089Z,22.40
2018-04-15T08:58:00.860Z,20.10
2018-04-15T09:00:06.117Z,23.47
2018-04-15T09:02:09.740Z,30.07
2018-04-15T09:04:13.295Z,33.53
2018-04-15T09:06:16.928Z,21.27
2018-04-15T09:08:20.521Z,35.10
2018-04-15T09:10:24.071Z,21.93
2018-04-15T09:12:27.702Z,30.83
2018-04-15T09:14:31.262Z,27.53
2018-04-15T09:16:35.626Z,32.50
2018-04-15T09:18:40.015Z,25.50
2018-04-15T09:20:43.557Z,24.70
2018-04-15T09:22:47.286Z,30.47
2018-04-15T09:24:51.649Z,26.93
2018-04-15T09:26:55.329Z,21.40
2018-04-15T09:28:58.931Z,27.77
2018-04-15T09:31:08.136Z,30.37
2018-04-15T09:33:11.819Z,38.63
2018-04-15T09:35:15.340Z,22.40
2018-04-15T09:37:18.941Z,32.27
2018-04-15T09:39:22.602Z,23.73
2018-04-15T09:41:26.201Z,23.53
2018-04-15T09:43:33.339Z,31.80
2018-04-15T09:45:38.018Z,22.27
2018-04-15T09:47:41.575Z,20.27
2018-04-15T09:49:45.123Z,22.90
2018-04-15T09:51:48.703Z,28.83
2018-04-15T09:53:56.774Z,17.27
2018-04-15T09:56:02.717Z,23.77
2018-04-15T09:58:06.261Z,23.37
2018-04-15T10:00:09.866Z,21.53
2018-04-15T10:02:13.510Z,21.70
2018-04-15T10:04:17.081Z,20.80
2018-04-15T10:06:23.028Z,20.10
2018-04-15T10:08:26.582Z,17.53
2018-04-15T10:10:30.887Z,25.70
2018-04-15T10:12:35.420Z,18.57
2018-04-15T10:14:39.866Z,29.10
2018-04-15T10:16:43.883Z,29.63
2018-04-15T10:18:47.447Z,20.13
2018-04-15T10:20:52.596Z,20.33
2018-04-15T10:22:56.179Z,21.23
2018-04-15T10:25:03.164Z,20.57
2018-04-15T10:27:06.776Z,19.27
2018-04-15T10:29:10.435Z,21.60
2018-04-15T10:31:14.855Z,25.97
2018-04-15T10:33:19.165Z,22.57
2018-04-15T10:35:22.888Z,25.80
2018-04-15T10:37:26.521Z,22.40
2018-04-15T10:39:30.203Z,27.60
2018-04-15T10:41:34.285Z,19.20
2018-04-15T10:43:37.899Z,28.00
2018-04-15T10:45:41.460Z,21.23
2018-04-15T10:47:47.580Z,22.53
2018-04-15T10:49:51.627Z,24.30
2018-04-15T10:51:58.440Z,22.17
2018-04-15T10:54:02.018Z,20.10
2018-04-15T10:56:05.631Z,25.40
2018-04-15T10:58:09.520Z,21.97
2018-04-15T11:00:13.088Z,18.80
2018-04-15T11:02:17.472Z,22.23
2018-04-15T11:04:21.093Z,22.70
2018-04-15T11:06:24.679Z,19.10
2018-04-15T11:08:28.509Z,22.17
2018-04-15T11:10:32.904Z,19.10
2018-04-15T11:12:36.484Z,23.93
2018-04-15T11:14:40.107Z,26.27
2018-04-15T11:16:43.758Z,25.73
2018-04-15T11:18:47.404Z,18.30
2018-04-15T11:20:51.045Z,20.20
2018-04-15T11:22:54.578Z,21.30
2018-04-15T11:24:58.231Z,18.07
2018-04-15T11:27:01.776Z,22.13
2018-04-15T11:29:05.413Z,17.23
2018-04-15T11:31:09.194Z,15.40
2018-04-15T11:33:13.525Z,20.33
2018-04-15T11:35:17.106Z,18.87
2018-04-15T11:37:20.665Z,16.97
2018-04-15T11:39:24.175Z,16.73
2018-04-15T11:41:27.767Z,18.13
2018-04-15T11:43:31.326Z,21.90
2018-04-15T11:45:34.890Z,18.13
2018-04-15T11:47:39.216Z,16.60
2018-04-15T11:49:42.850Z,16.03
2018-04-15T11:51:46.456Z,15.57
2018-04-15T11:53:50.243Z,16.57
2018-04-15T11:55:53.820Z,15.27
2018-04-15T11:57:57.369Z,16.57
2018-04-15T12:00:01.774Z,21.77
2018-04-15T12:02:05.411Z,15.30
2018-04-15T12:04:08.980Z,22.10
2018-04-15T12:06:12.588Z,15.13
2018-04-15T12:08:16.943Z,14.87
2018-04-15T12:10:20.575Z,13.90
2018-04-15T12:12:24.205Z,15.17
2018-04-15T12:14:28.592Z,14.93
2018-04-15T12:16:33.581Z,15.40
2018-04-15T12:18:37.151Z,13.73
2018-04-15T12:20:42.144Z,13.63
2018-04-15T12:22:46.080Z,15.00
2018-04-15T12:24:49.824Z,13.43
2018-04-15T12:26:56.595Z,16.27
2018-04-15T12:29:03.522Z,14.83
2018-04-15T12:31:07.879Z,11.90
2018-04-15T12:33:11.468Z,13.37
2018-04-15T12:35:15.426Z,13.90
2018-04-15T12:37:21.082Z,15.87
2018-04-15T12:39:25.380Z,16.93
2018-04-15T12:41:29.632Z,12.63
2018-04-15T12:43:34.903Z,16.00
2018-04-15T12:45:38.465Z,12.87
2018-04-15T12:47:42.863Z,12.70
2018-04-15T12:49:47.175Z,12.30
2018-04-15T12:51:51.580Z,17.00
2018-04-15T12:53:55.945Z,12.23
2018-04-15T12:55:59.572Z,11.77
2018-04-15T12:58:03.170Z,11.07
2018-04-15T13:00:06.764Z,12.97
2018-04-15T13:02:11.139Z,10.70
2018-04-15T13:04:14.882Z,14.87
2018-04-15T13:06:18.430Z,12.17
2018-04-15T13:08:22.058Z,10.67
2018-04-15T13:10:25.681Z,13.07
2018-04-15T13:12:30.041Z,13.83
2018-04-15T13:14:33.603Z,11.50
2018-04-15T13:16:37.951Z,10.43
2018-04-15T13:18:41.490Z,11.27
2018-04-15T13:20:45.097Z,10.60
2018-04-15T13:22:48.686Z,10.53
2018-04-15T13:24:52.226Z,11.20
2018-04-15T13:26:55.912Z,10.63
2018-04-15T13:28:59.503Z,10.87
2018-04-15T13:31:03.787Z,11.57
2018-04-15T13:33:07.393Z,10.17
2018-04-15T13:35:10.920Z,9.93
2018-04-15T13:37:14.715Z,9.77
2018-04-15T13:39:19.075Z,10.00
2018-04-15T13:41:23.436Z,10.23
2018-04-15T13:43:27.548Z,9.37
2018-04-15T13:45:31.150Z,11.67
2018-04-15T13:47:36.293Z,9.63
2018-04-15T13:49:40.140Z,9.83
2018-04-15T13:51:43.822Z,8.90
2018-04-15T13:53:47.390Z,8.97
2018-04-15T13:55:53.448Z,13.17
2018-04-15T13:57:57.060Z,10.43
2018-04-15T14:00:01.900Z,13.53
2018-04-15T14:02:05.485Z,8.37
2018-04-15T14:04:09.203Z,9.23
2018-04-15T14:06:12.792Z,8.20
2018-04-15T14:08:17.811Z,9.30
2018-04-15T14:10:21.564Z,9.00
2018-04-15T14:12:25.145Z,8.87
2018-04-15T14:14:28.696Z,11.00
2018-04-15T14:16:34.272Z,8.10
2018-04-15T14:18:38.624Z,8.57
2018-04-15T14:20:42.121Z,9.07
2018-04-15T14:22:45.711Z,9.70
2018-04-15T14:24:50.082Z,8.60
2018-04-15T14:26:53.680Z,8.87
2018-04-15T14:28:58.047Z,9.20
2018-04-15T14:31:01.827Z,8.90
2018-04-15T14:33:05.358Z,8.77
2018-04-15T14:35:08.941Z,8.70
2018-04-15T14:37:14.646Z,8.87
2018-04-15T14:39:18.976Z,9.23
2018-04-15T14:41:23.458Z,11.70
2018-04-15T14:43:28.111Z,8.70
2018-04-15T14:45:31.717Z,16.50
2018-04-15T14:47:35.681Z,13.70
2018-04-15T14:49:39.260Z,11.03
2018-04-15T14:51:42.867Z,15.17
2018-04-15T14:53:47.287Z,9.23
2018-04-15T14:55:55.021Z,11.43
2018-04-15T14:57:59.992Z,10.43
2018-04-15T15:00:05.873Z,9.03
2018-04-15T15:02:10.320Z,8.57
2018-04-15T15:04:14.837Z,11.30
2018-04-15T15:06:18.397Z,9.20
2018-04-15T15:08:21.976Z,10.83
2018-04-15T15:10:27.106Z,11.90
2018-04-15T15:12:30.649Z,10.77
2018-04-15T15:14:34.283Z,12.77
2018-04-15T15:16:37.916Z,12.90
2018-04-15T15:18:42.238Z,10.83
2018-04-15T15:20:45.783Z,12.87
2018-04-15T15:22:49.379Z,12.07
2018-04-15T15:24:53.170Z,11.33
2018-04-15T15:26:56.841Z,10.03
2018-04-15T15:29:00.346Z,9.30
2018-04-15T15:31:03.916Z,9.37
2018-04-15T15:33:07.953Z,7.93
2018-04-15T15:35:12.012Z,8.53
2018-04-15T15:37:16.321Z,8.70
2018-04-15T15:39:20.687Z,9.23
2018-04-15T15:41:25.007Z,8.47
2018-04-15T15:43:28.635Z,8.20
2018-04-15T15:45:32.246Z,7.37
2018-04-15T15:47:36.532Z,8.43
2018-04-15T15:49:40.044Z,8.70
2018-04-15T15:51:44.335Z,8.67
2018-04-15T15:53:47.940Z,8.43
2018-04-15T15:55:51.515Z,8.07
2018-04-15T15:57:55.041Z,9.47
2018-04-15T15:59:58.645Z,8.70
2018-04-15T16:02:02.213Z,8.20
2018-04-15T16:04:05.732Z,7.87
2018-04-15T16:06:09.330Z,7.87
2018-04-15T16:08:13.624Z,8.73
2018-04-15T16:10:17.616Z,10.80
2018-04-15T16:12:21.175Z,10.43
2018-04-15T16:14:24.753Z,10.23
2018-04-15T16:16:29.314Z,10.43
2018-04-15T16:18:33.066Z,11.03
2018-04-15T16:20:37.368Z,10.03
2018-04-15T16:22:40.983Z,8.70
2018-04-15T16:24:45.323Z,10.10
2018-04-15T16:26:48.886Z,8.50
2018-04-15T16:28:53.257Z,7.87
2018-04-15T16:30:56.829Z,8.33
2018-04-15T16:33:00.368Z,8.90
2018-04-15T16:35:03.934Z,8.93
2018-04-15T16:37:07.484Z,8.27
2018-04-15T16:39:11.837Z,8.83
2018-04-15T16:41:15.424Z,8.80
2018-04-15T16:43:19.754Z,7.90
2018-04-15T16:45:23.280Z,8.47
2018-04-15T16:47:26.881Z,9.13
2018-04-15T16:49:30.486Z,8.50
2018-04-15T16:51:34.051Z,9.90
2018-04-15T16:53:37.615Z,9.93
2018-04-15T16:55:41.250Z,11.00
2018-04-15T16:57:44.924Z,9.83
2018-04-15T16:59:48.522Z,11.23
2018-04-15T17:01:52.172Z,9.47
2018-04-15T17:03:55.678Z,7.53
2018-04-15T17:06:00.355Z,11.03
2018-04-15T17:08:03.960Z,10.00
2018-04-15T17:10:07.539Z,13.37
2018-04-15T17:12:11.524Z,12.97
2018-04-15T17:14:15.040Z,12.80
2018-04-15T17:16:18.558Z,12.87
2018-04-15T17:18:22.125Z,13.30
2018-04-15T17:20:25.727Z,13.47
2018-04-15T17:22:29.305Z,10.77
2018-04-15T17:24:32.867Z,11.37
2018-04-15T17:26:37.347Z,12.57
2018-04-15T17:28:40.878Z,10.77
2018-04-15T17:30:44.488Z,12.90
2018-04-15T17:32:48.027Z,13.70
2018-04-15T17:34:51.535Z,14.93
2018-04-15T17:36:55.168Z,14.63
2018-04-15T17:38:59.521Z,13.47
2018-04-15T17:41:03.045Z,14.30
2018-04-15T17:43:06.912Z,14.50
2018-04-15T17:45:10.466Z,13.90
2018-04-15T17:47:14.770Z,14.63
2018-04-15T17:49:18.381Z,14.70
2018-04-15T17:51:22.647Z,15.37
2018-04-15T17:53:26.968Z,16.00
2018-04-15T17:55:30.546Z,16.20
2018-04-15T17:57:34.132Z,15.77
2018-04-15T17:59:37.697Z,14.70
2018-04-15T18:01:41.996Z,14.03
2018-04-15T18:03:45.559Z,14.47
2018-04-15T18:05:49.174Z,13.50
2018-04-15T18:07:53.064Z,16.23
2018-04-15T18:09:56.632Z,15.67
2018-04-15T18:12:00.149Z,16.60
2018-04-15T18:14:03.747Z,17.03
2018-04-15T18:16:07.287Z,16.63
2018-04-15T18:18:11.608Z,15.73
2018-04-15T18:20:16.047Z,16.53
2018-04-15T18:22:20.074Z,17.07
2018-04-15T18:24:23.616Z,17.50
2018-04-15T18:26:27.170Z,15.93
2018-04-15T18:28:30.686Z,19.17
2018-04-15T18:30:34.613Z,17.57
2018-04-15T18:32:38.952Z,18.50
2018-04-15T18:34:42.476Z,18.43
2018-04-15T18:36:46.071Z,18.23
2018-04-15T18:38:49.602Z,18.33
2018-04-15T18:40:53.197Z,19.03
2018-04-15T18:42:56.773Z,15.50
2018-04-15T18:45:00.762Z,14.03
2018-04-15T18:47:04.302Z,19.33
2018-04-15T18:49:08.623Z,17.17
2018-04-15T18:51:12.163Z,17.83
2018-04-15T18:53:15.736Z,17.83
2018-04-15T18:55:19.332Z,19.50
2018-04-15T18:57:22.944Z,18.47
2018-04-15T18:59:26.460Z,18.87
2018-04-15T19:01:30.823Z,18.70
2018-04-15T19:03:34.599Z,19.13
2018-04-15T19:05:38.108Z,17.43
2018-04-15T19:07:42.593Z,19.53
2018-04-15T19:09:46.124Z,19.47
2018-04-15T19:11:50.380Z,19.93
2018-04-15T19:13:54.061Z,18.67
2018-04-15T19:15:57.806Z,19.50
2018-04-15T19:18:01.339Z,19.93
2018-04-15T19:20:06.461Z,19.98
2018-04-15T19:22:10.078Z,21.37
2018-04-15T19:24:14.396Z,20.90
2018-04-15T19:26:17.893Z,20.20
2018-04-15T19:28:21.453Z,20.50
2018-04-15T19:30:25.036Z,21.43
2018-04-15T19:32:28.584Z,20.63
2018-04-15T19:34:32.543Z,15.70
2018-04-15T19:36:36.104Z,15.43
2018-04-15T19:38:39.614Z,19.30
2018-04-15T19:40:43.942Z,20.67
2018-04-15T19:42:47.510Z,19.53
2018-04-15T19:44:51.111Z,20.83
2018-04-15T19:46:54.648Z,22.23
2018-04-15T19:48:58.332Z,21.63
2018-04-15T19:51:01.979Z,20.67
2018-04-15T19:53:05.622Z,21.87
2018-04-15T19:55:09.206Z,22.77
2018-04-15T19:57:12.781Z,22.40
2018-04-15T19:59:16.326Z,22.73
2018-04-15T20:01:19.891Z,23.23
2018-04-15T20:03:23.448Z,22.30
2018-04-15T20:05:27.053Z,23.53
2018-04-15T20:07:30.590Z,22.20
2018-04-15T20:09:34.076Z,22.13
2018-04-15T20:11:37.654Z,20.97
2018-04-15T20:13:41.301Z,21.00
2018-04-15T20:15:44.802Z,22.43
2018-04-15T20:17:48.328Z,23.23
2018-04-15T20:19:52.315Z,24.30
2018-04-15T20:21:56.640Z,23.10
2018-04-15T20:24:00.987Z,22.07
2018-04-15T20:26:04.628Z,24.80
2018-04-15T20:28:08.196Z,24.63
2018-04-15T20:30:11.739Z,24.40
2018-04-15T20:32:15.268Z,24.03
2018-04-15T20:34:18.956Z,22.27
2018-04-15T20:36:22.498Z,25.03
2018-04-15T20:38:31.023Z,24.57
2018-04-15T20:40:35.230Z,23.27
2018-04-15T20:42:42.515Z,23.57
2018-04-15T20:44:46.102Z,24.20
2018-04-15T20:46:49.652Z,23.07
2018-04-15T20:48:53.488Z,24.77
2018-04-15T20:50:57.484Z,23.10
2018-04-15T20:53:04.963Z,24.63
2018-04-15T20:55:10.920Z,24.37
2018-04-15T20:57:15.179Z,25.43
2018-04-15T20:59:19.992Z,24.03
2018-04-15T21:01:25.216Z,24.40
2018-04-15T21:03:28.828Z,22.53
2018-04-15T21:05:35.622Z,21.40
2018-04-15T21:07:39.177Z,25.53
2018-04-15T21:09:42.783Z,23.97
2018-04-15T21:11:47.675Z,24.03
2018-04-15T21:13:54.003Z,25.33
2018-04-15T21:16:02.222Z,24.03
2018-04-15T21:18:05.921Z,25.90
2018-04-15T21:20:10.268Z,23.73
2018-04-15T21:22:13.807Z,25.27
2018-04-15T21:24:17.447Z,24.67
2018-04-15T21:26:23.160Z,24.33
2018-04-15T21:28:26.688Z,23.43
2018-04-15T21:30:30.192Z,23.67
2018-04-15T21:32:34.958Z,24.53
2018-04-15T21:34:39.737Z,25.63
2018-04-15T21:36:43.251Z,24.13
2018-04-15T21:38:50.504Z,25.83
2018-04-15T21:40:55.773Z,24.50
2018-04-15T21:42:59.348Z,24.90
2018-04-15T21:45:03.595Z,24.90
2018-04-15T21:47:07.100Z,22.90
2018-04-15T21:49:10.756Z,24.57
2018-04-15T21:51:14.354Z,24.07
2018-04-15T21:53:17.949Z,23.33
2018-04-15T21:55:22.053Z,22.10
2018-04-15T21:57:26.532Z,22.10
2018-04-15T21:59:30.065Z,24.90
2018-04-15T22:01:33.589Z,23.17
2018-04-15T22:03:37.143Z,23.00
2018-04-15T22:05:40.754Z,21.40
2018-04-15T22:07:44.360Z,22.33
2018-04-15T22:09:47.986Z,24.57
2018-04-15T22:12:03.375Z,22.00
2018-04-15T22:14:06.921Z,19.83
2018-04-15T22:16:11.366Z,20.73
2018-04-15T22:18:14.918Z,20.00
2018-04-15T22:20:18.855Z,17.13
2018-04-15T22:22:22.736Z,23.23
2018-04-15T22:24:27.298Z,22.57
2018-04-15T22:26:33.103Z,19.93
2018-04-15T22:28:36.748Z,20.90
2018-04-15T22:30:41.012Z,19.93
2018-04-15T22:32:44.559Z,21.30
2018-04-15T22:34:48.167Z,20.30
2018-04-15T22:36:51.825Z,17.13
2018-04-15T22:38:55.408Z,21.57
2018-04-15T22:41:04.794Z,19.90
2018-04-15T22:43:11.212Z,19.40
2018-04-15T22:45:18.555Z,16.13
2018-04-15T22:47:22.267Z,17.07
2018-04-15T22:49:28.709Z,14.47
2018-04-15T22:51:36.504Z,21.53
2018-04-15T22:53:43.960Z,21.50
2018-04-15T22:55:51.807Z,23.30
2018-04-15T22:57:58.574Z,20.77
2018-04-15T23:00:04.326Z,25.83
2018-04-15T23:02:07.649Z,22.53
2018-04-15T23:04:13.216Z,25.83
2018-04-15T23:06:20.126Z,21.87
2018-04-15T23:08:24.817Z,26.13
2018-04-15T23:10:34.850Z,25.57
2018-04-15T23:12:42.810Z,25.00
2018-04-15T23:14:49.122Z,25.63
2018-04-15T23:16:56.232Z,22.97
2018-04-15T23:19:05.247Z,25.10
2018-04-15T23:21:12.585Z,25.27
2018-04-15T23:23:16.339Z,24.73
2018-04-15T23:25:19.897Z,24.40
2018-04-15T23:27:26.515Z,28.53
2018-04-15T23:29:32.676Z,30.07
2018-04-15T23:31:41.470Z,18.57
2018-04-15T23:33:48.413Z,24.37
2018-04-15T23:35:54.595Z,26.33
2018-04-15T23:38:02.553Z,25.53
2018-04-15T23:40:08.152Z,25.73
2018-04-15T23:42:12.121Z,24.70
2018-04-15T23:44:20.358Z,28.07
2018-04-15T23:46:27.247Z,26.00
2018-04-15T23:48:31.987Z,25.40
2018-04-15T23:50:41.034Z,28.50
2018-04-15T23:52:45.329Z,27.73
2018-04-15T23:54:51.977Z,25.23
2018-04-15T23:56:56.950Z,26.40
2018-04-15T23:59:02.020Z,27.03
